sensor_id;sensor_type;location;lat;lon;timestamp;temperature;humidity
34877;DHT22;21086;44.780;17.194;2023-07-24T00:01:53;21.80;1.00
34877;DHT22;21086;44.780;17.194;2023-07-24T00:04:20;21.80;1.00
34877;DHT22;21086;44.780;17.194;2023-07-24T00:06:47;21.70;1.00
34877;DHT22;21086;44.780;17.194;2023-07-24T00:09:14;21.70;1.00
34877;DHT22;21086;44.780;17.194;2023-07-24T00:11:41;21.80;1.00
34877;DHT22;21086;44.780;17.194;2023-07-24T00:14:08;21.90;1.00
34877;DHT22;21086;44.780;17.194;2023-07-24T00:16:35;21.90;1.00
34877;DHT22;21086;44.780;17.194;2023-07-24T00:19:02;21.90;1.00
34877;DHT22;21086;44.780;17.194;2023-07-24T00:21:29;21.90;1.00
34877;DHT22;21086;44.780;17.194;2023-07-24T00:23:57;21.80;1.00
34877;DHT22;21086;44.780;17.194;2023-07-24T00:26:24;21.70;1.00
34877;DHT22;21086;44.780;17.194;2023-07-24T00:28:51;21.60;1.00
34877;DHT22;21086;44.780;17.194;2023-07-24T00:31:18;21.50;1.00
34877;DHT22;21086;44.780;17.194;2023-07-24T00:33:45;21.50;1.00
34877;DHT22;21086;44.780;17.194;2023-07-24T00:36:12;21.40;1.00
34877;DHT22;21086;44.780;17.194;2023-07-24T00:38:40;21.40;1.00
34877;DHT22;21086;44.780;17.194;2023-07-24T00:41:07;21.40;1.00
34877;DHT22;21086;44.780;17.194;2023-07-24T00:43:34;21.40;1.00
34877;DHT22;21086;44.780;17.194;2023-07-24T00:46:01;21.40;1.00
34877;DHT22;21086;44.780;17.194;2023-07-24T00:48:29;21.40;1.00
34877;DHT22;21086;44.780;17.194;2023-07-24T00:50:56;21.30;1.00
34877;DHT22;21086;44.780;17.194;2023-07-24T00:53:24;21.30;1.00
34877;DHT22;21086;44.780;17.194;2023-07-24T00:55:51;21.30;1.00
34877;DHT22;21086;44.780;17.194;2023-07-24T00:58:19;21.20;1.00
34877;DHT22;21086;44.780;17.194;2023-07-24T01:00:46;21.20;1.00
34877;DHT22;21086;44.780;17.194;2023-07-24T01:03:13;21.30;1.00
34877;DHT22;21086;44.780;17.194;2023-07-24T01:05:41;21.20;1.00
34877;DHT22;21086;44.780;17.194;2023-07-24T01:08:08;21.30;1.00
34877;DHT22;21086;44.780;17.194;2023-07-24T01:10:35;21.20;1.00
34877;DHT22;21086;44.780;17.194;2023-07-24T01:13:15;21.30;1.00
34877;DHT22;21086;44.780;17.194;2023-07-24T01:15:47;21.20;1.00
34877;DHT22;21086;44.780;17.194;2023-07-24T01:18:17;21.10;1.00
34877;DHT22;21086;44.780;17.194;2023-07-24T01:20:50;21.10;1.00
34877;DHT22;21086;44.780;17.194;2023-07-24T01:28:23;21.00;1.00
34877;DHT22;21086;44.780;17.194;2023-07-24T01:30:51;21.00;1.00
34877;DHT22;21086;44.780;17.194;2023-07-24T01:33:19;21.10;1.00
34877;DHT22;21086;44.780;17.194;2023-07-24T01:35:50;21.00;1.00
34877;DHT22;21086;44.780;17.194;2023-07-24T01:38:19;21.00;1.00
34877;DHT22;21086;44.780;17.194;2023-07-24T01:40:46;20.90;1.00
34877;DHT22;21086;44.780;17.194;2023-07-24T01:43:14;20.90;1.00
34877;DHT22;21086;44.780;17.194;2023-07-24T01:45:41;20.80;1.00
34877;DHT22;21086;44.780;17.194;2023-07-24T01:48:08;20.70;1.00
34877;DHT22;21086;44.780;17.194;2023-07-24T01:50:35;20.70;1.00
34877;DHT22;21086;44.780;17.194;2023-07-24T01:53:02;20.60;1.00
34877;DHT22;21086;44.780;17.194;2023-07-24T01:55:30;20.50;1.00
34877;DHT22;21086;44.780;17.194;2023-07-24T01:57:56;20.50;1.00
34877;DHT22;21086;44.780;17.194;2023-07-24T02:00:23;20.50;1.00
34877;DHT22;21086;44.780;17.194;2023-07-24T02:02:50;20.40;1.00
34877;DHT22;21086;44.780;17.194;2023-07-24T02:05:18;20.60;1.00
34877;DHT22;21086;44.780;17.194;2023-07-24T02:07:45;20.50;1.00
34877;DHT22;21086;44.780;17.194;2023-07-24T02:10:12;20.50;1.00
34877;DHT22;21086;44.780;17.194;2023-07-24T02:12:39;20.50;1.00
34877;DHT22;21086;44.780;17.194;2023-07-24T02:15:07;20.50;1.00
34877;DHT22;21086;44.780;17.194;2023-07-24T02:17:43;20.50;1.00
34877;DHT22;21086;44.780;17.194;2023-07-24T02:20:10;20.50;1.00
34877;DHT22;21086;44.780;17.194;2023-07-24T02:22:37;20.50;1.00
34877;DHT22;21086;44.780;17.194;2023-07-24T02:25:04;20.50;1.00
34877;DHT22;21086;44.780;17.194;2023-07-24T02:27:32;20.60;1.00
34877;DHT22;21086;44.780;17.194;2023-07-24T02:30:02;20.60;1.00
34877;DHT22;21086;44.780;17.194;2023-07-24T02:32:29;20.60;1.00
34877;DHT22;21086;44.780;17.194;2023-07-24T02:34:56;20.70;1.00
34877;DHT22;21086;44.780;17.194;2023-07-24T02:37:23;20.80;1.00
34877;DHT22;21086;44.780;17.194;2023-07-24T02:39:52;20.70;1.00
34877;DHT22;21086;44.780;17.194;2023-07-24T02:42:20;20.70;1.00
34877;DHT22;21086;44.780;17.194;2023-07-24T02:44:47;20.70;1.00
34877;DHT22;21086;44.780;17.194;2023-07-24T02:47:14;20.60;1.00
34877;DHT22;21086;44.780;17.194;2023-07-24T02:49:41;20.50;1.00
34877;DHT22;21086;44.780;17.194;2023-07-24T02:52:08;20.40;1.00
34877;DHT22;21086;44.780;17.194;2023-07-24T02:54:35;20.40;1.00
34877;DHT22;21086;44.780;17.194;2023-07-24T02:57:02;20.30;1.00
34877;DHT22;21086;44.780;17.194;2023-07-24T02:59:29;20.30;1.00
34877;DHT22;21086;44.780;17.194;2023-07-24T03:01:58;20.30;1.00
34877;DHT22;21086;44.780;17.194;2023-07-24T03:04:25;20.30;1.00
34877;DHT22;21086;44.780;17.194;2023-07-24T03:06:52;20.30;1.00
34877;DHT22;21086;44.780;17.194;2023-07-24T03:09:19;20.30;1.00
34877;DHT22;21086;44.780;17.194;2023-07-24T03:11:46;20.40;1.00
34877;DHT22;21086;44.780;17.194;2023-07-24T03:14:13;20.30;1.00
34877;DHT22;21086;44.780;17.194;2023-07-24T03:16:40;20.30;1.00
34877;DHT22;21086;44.780;17.194;2023-07-24T03:19:07;20.20;1.00
34877;DHT22;21086;44.780;17.194;2023-07-24T03:21:34;20.20;1.00
34877;DHT22;21086;44.780;17.194;2023-07-24T03:24:01;20.20;1.00
34877;DHT22;21086;44.780;17.194;2023-07-24T03:26:28;20.20;1.00
34877;DHT22;21086;44.780;17.194;2023-07-24T03:28:56;20.20;1.00
34877;DHT22;21086;44.780;17.194;2023-07-24T03:31:23;20.10;1.00
34877;DHT22;21086;44.780;17.194;2023-07-24T03:33:50;20.10;1.00
34877;DHT22;21086;44.780;17.194;2023-07-24T03:36:18;20.10;1.00
34877;DHT22;21086;44.780;17.194;2023-07-24T03:38:47;20.10;1.00
34877;DHT22;21086;44.780;17.194;2023-07-24T03:41:14;20.00;1.00
34877;DHT22;21086;44.780;17.194;2023-07-24T03:43:41;20.10;1.00
34877;DHT22;21086;44.780;17.194;2023-07-24T03:46:08;20.10;1.00
34877;DHT22;21086;44.780;17.194;2023-07-24T03:48:36;20.10;1.00
34877;DHT22;21086;44.780;17.194;2023-07-24T03:51:03;20.10;1.00
34877;DHT22;21086;44.780;17.194;2023-07-24T03:53:30;20.20;1.00
34877;DHT22;21086;44.780;17.194;2023-07-24T03:55:59;20.30;1.00
34877;DHT22;21086;44.780;17.194;2023-07-24T03:58:26;20.40;1.00
34877;DHT22;21086;44.780;17.194;2023-07-24T04:00:52;20.40;1.00
34877;DHT22;21086;44.780;17.194;2023-07-24T04:03:19;20.40;1.00
34877;DHT22;21086;44.780;17.194;2023-07-24T04:05:47;20.30;1.00
34877;DHT22;21086;44.780;17.194;2023-07-24T04:08:14;20.30;1.00
34877;DHT22;21086;44.780;17.194;2023-07-24T04:10:41;20.30;1.00
34877;DHT22;21086;44.780;17.194;2023-07-24T04:13:08;20.30;1.00
34877;DHT22;21086;44.780;17.194;2023-07-24T04:15:35;20.40;1.00
34877;DHT22;21086;44.780;17.194;2023-07-24T04:18:03;20.50;1.00
34877;DHT22;21086;44.780;17.194;2023-07-24T04:20:30;20.60;1.00
34877;DHT22;21086;44.780;17.194;2023-07-24T04:22:57;20.70;1.00
34877;DHT22;21086;44.780;17.194;2023-07-24T04:25:24;20.60;1.00
34877;DHT22;21086;44.780;17.194;2023-07-24T04:27:51;20.70;1.00
34877;DHT22;21086;44.780;17.194;2023-07-24T04:30:18;20.70;1.00
34877;DHT22;21086;44.780;17.194;2023-07-24T04:32:46;20.80;1.00
34877;DHT22;21086;44.780;17.194;2023-07-24T04:35:13;20.90;1.00
34877;DHT22;21086;44.780;17.194;2023-07-24T04:37:40;21.00;1.00
34877;DHT22;21086;44.780;17.194;2023-07-24T04:40:07;21.00;1.00
34877;DHT22;21086;44.780;17.194;2023-07-24T04:42:35;21.20;1.00
34877;DHT22;21086;44.780;17.194;2023-07-24T04:45:02;21.20;1.00
34877;DHT22;21086;44.780;17.194;2023-07-24T04:47:29;21.30;1.00
34877;DHT22;21086;44.780;17.194;2023-07-24T04:49:56;21.40;1.00
34877;DHT22;21086;44.780;17.194;2023-07-24T04:52:23;21.50;1.00
34877;DHT22;21086;44.780;17.194;2023-07-24T04:54:50;21.60;1.00
34877;DHT22;21086;44.780;17.194;2023-07-24T04:57:17;21.70;1.00
34877;DHT22;21086;44.780;17.194;2023-07-24T04:59:44;21.90;1.00
34877;DHT22;21086;44.780;17.194;2023-07-24T05:02:11;22.00;1.00
34877;DHT22;21086;44.780;17.194;2023-07-24T05:04:39;22.10;1.00
34877;DHT22;21086;44.780;17.194;2023-07-24T05:07:06;22.10;99.90
34877;DHT22;21086;44.780;17.194;2023-07-24T05:09:33;22.30;99.90
34877;DHT22;21086;44.780;17.194;2023-07-24T05:12:00;22.20;99.90
34877;DHT22;21086;44.780;17.194;2023-07-24T05:14:27;22.20;1.00
34877;DHT22;21086;44.780;17.194;2023-07-24T05:16:54;22.30;99.90
34877;DHT22;21086;44.780;17.194;2023-07-24T05:19:22;22.40;99.90
34877;DHT22;21086;44.780;17.194;2023-07-24T05:21:49;22.50;99.90
34877;DHT22;21086;44.780;17.194;2023-07-24T05:24:16;22.50;99.90
34877;DHT22;21086;44.780;17.194;2023-07-24T05:26:43;22.70;99.90
34877;DHT22;21086;44.780;17.194;2023-07-24T05:29:10;22.80;99.90
34877;DHT22;21086;44.780;17.194;2023-07-24T05:31:37;23.10;99.90
34877;DHT22;21086;44.780;17.194;2023-07-24T05:34:04;23.20;99.90
34877;DHT22;21086;44.780;17.194;2023-07-24T05:36:31;23.40;99.90
34877;DHT22;21086;44.780;17.194;2023-07-24T05:38:58;23.50;99.90
34877;DHT22;21086;44.780;17.194;2023-07-24T05:41:25;23.50;99.90
34877;DHT22;21086;44.780;17.194;2023-07-24T05:43:53;23.60;99.90
34877;DHT22;21086;44.780;17.194;2023-07-24T05:46:20;23.70;99.90
34877;DHT22;21086;44.780;17.194;2023-07-24T05:48:47;23.80;99.90
34877;DHT22;21086;44.780;17.194;2023-07-24T05:51:14;23.90;99.90
34877;DHT22;21086;44.780;17.194;2023-07-24T05:53:41;24.00;99.90
34877;DHT22;21086;44.780;17.194;2023-07-24T05:56:08;24.10;99.90
34877;DHT22;21086;44.780;17.194;2023-07-24T05:58:35;24.30;99.90
34877;DHT22;21086;44.780;17.194;2023-07-24T06:01:02;24.40;99.90
34877;DHT22;21086;44.780;17.194;2023-07-24T06:03:30;24.40;99.90
34877;DHT22;21086;44.780;17.194;2023-07-24T06:05:57;24.60;99.90
34877;DHT22;21086;44.780;17.194;2023-07-24T06:08:24;24.60;99.90
34877;DHT22;21086;44.780;17.194;2023-07-24T06:10:51;24.80;99.90
34877;DHT22;21086;44.780;17.194;2023-07-24T06:13:19;24.80;99.90
34877;DHT22;21086;44.780;17.194;2023-07-24T06:15:48;24.90;99.90
34877;DHT22;21086;44.780;17.194;2023-07-24T06:18:18;25.10;99.90
34877;DHT22;21086;44.780;17.194;2023-07-24T06:20:45;25.10;99.90
34877;DHT22;21086;44.780;17.194;2023-07-24T06:23:11;25.20;99.90
34877;DHT22;21086;44.780;17.194;2023-07-24T06:25:38;25.30;99.90
34877;DHT22;21086;44.780;17.194;2023-07-24T06:28:05;25.50;99.90
34877;DHT22;21086;44.780;17.194;2023-07-24T06:30:33;25.50;99.90
34877;DHT22;21086;44.780;17.194;2023-07-24T06:33:02;25.70;99.90
34877;DHT22;21086;44.780;17.194;2023-07-24T06:35:30;25.90;99.90
34877;DHT22;21086;44.780;17.194;2023-07-24T06:37:57;26.00;99.90
34877;DHT22;21086;44.780;17.194;2023-07-24T06:40:24;26.00;99.90
34877;DHT22;21086;44.780;17.194;2023-07-24T06:42:51;26.10;99.90
34877;DHT22;21086;44.780;17.194;2023-07-24T06:45:19;26.20;99.90
34877;DHT22;21086;44.780;17.194;2023-07-24T06:47:47;26.20;99.90
34877;DHT22;21086;44.780;17.194;2023-07-24T06:50:14;26.40;99.90
34877;DHT22;21086;44.780;17.194;2023-07-24T06:52:41;25.40;99.90
34877;DHT22;21086;44.780;17.194;2023-07-24T06:55:08;26.70;99.90
34877;DHT22;21086;44.780;17.194;2023-07-24T06:57:35;26.80;99.90
34877;DHT22;21086;44.780;17.194;2023-07-24T07:00:02;26.90;99.90
34877;DHT22;21086;44.780;17.194;2023-07-24T07:02:30;27.10;99.90
34877;DHT22;21086;44.780;17.194;2023-07-24T07:04:57;27.30;99.90
34877;DHT22;21086;44.780;17.194;2023-07-24T07:07:24;27.40;99.90
34877;DHT22;21086;44.780;17.194;2023-07-24T07:09:51;27.50;99.90
34877;DHT22;21086;44.780;17.194;2023-07-24T07:12:18;27.60;99.90
34877;DHT22;21086;44.780;17.194;2023-07-24T07:14:48;27.60;99.90
34877;DHT22;21086;44.780;17.194;2023-07-24T07:17:15;27.70;99.90
34877;DHT22;21086;44.780;17.194;2023-07-24T07:19:42;27.80;99.90
34877;DHT22;21086;44.780;17.194;2023-07-24T07:22:09;27.90;99.90
34877;DHT22;21086;44.780;17.194;2023-07-24T07:24:37;28.00;99.90
34877;DHT22;21086;44.780;17.194;2023-07-24T07:27:04;28.10;99.90
34877;DHT22;21086;44.780;17.194;2023-07-24T07:29:31;28.20;99.90
34877;DHT22;21086;44.780;17.194;2023-07-24T07:31:58;28.40;99.90
34877;DHT22;21086;44.780;17.194;2023-07-24T07:34:26;28.40;99.90
34877;DHT22;21086;44.780;17.194;2023-07-24T07:36:53;28.60;99.90
34877;DHT22;21086;44.780;17.194;2023-07-24T07:39:20;28.70;99.90
34877;DHT22;21086;44.780;17.194;2023-07-24T07:41:47;28.80;99.90
34877;DHT22;21086;44.780;17.194;2023-07-24T07:44:14;28.80;99.90
34877;DHT22;21086;44.780;17.194;2023-07-24T07:46:41;29.00;99.90
34877;DHT22;21086;44.780;17.194;2023-07-24T07:49:08;29.10;99.90
34877;DHT22;21086;44.780;17.194;2023-07-24T07:51:35;29.20;99.90
34877;DHT22;21086;44.780;17.194;2023-07-24T07:54:03;29.30;99.90
34877;DHT22;21086;44.780;17.194;2023-07-24T07:56:30;29.50;99.90
34877;DHT22;21086;44.780;17.194;2023-07-24T07:58:57;29.60;99.90
34877;DHT22;21086;44.780;17.194;2023-07-24T08:01:24;29.60;99.90
34877;DHT22;21086;44.780;17.194;2023-07-24T08:03:51;29.70;99.90
34877;DHT22;21086;44.780;17.194;2023-07-24T08:06:19;29.90;99.90
34877;DHT22;21086;44.780;17.194;2023-07-24T08:08:46;29.90;99.90
34877;DHT22;21086;44.780;17.194;2023-07-24T08:11:12;30.00;99.90
34877;DHT22;21086;44.780;17.194;2023-07-24T08:13:39;30.00;99.90
34877;DHT22;21086;44.780;17.194;2023-07-24T08:16:15;30.00;99.90
34877;DHT22;21086;44.780;17.194;2023-07-24T08:18:47;30.00;99.90
34877;DHT22;21086;44.780;17.194;2023-07-24T08:21:15;30.20;99.90
34877;DHT22;21086;44.780;17.194;2023-07-24T08:23:42;30.30;99.90
34877;DHT22;21086;44.780;17.194;2023-07-24T08:26:09;30.40;99.90
34877;DHT22;21086;44.780;17.194;2023-07-24T08:28:36;30.40;99.90
34877;DHT22;21086;44.780;17.194;2023-07-24T08:31:03;30.40;99.90
34877;DHT22;21086;44.780;17.194;2023-07-24T08:33:33;30.40;99.90
34877;DHT22;21086;44.780;17.194;2023-07-24T08:36:02;30.40;99.90
34877;DHT22;21086;44.780;17.194;2023-07-24T08:38:30;30.50;99.90
34877;DHT22;21086;44.780;17.194;2023-07-24T08:41:05;30.60;99.90
34877;DHT22;21086;44.780;17.194;2023-07-24T08:43:44;30.80;99.90
34877;DHT22;21086;44.780;17.194;2023-07-24T08:46:11;31.00;99.90
34877;DHT22;21086;44.780;17.194;2023-07-24T08:48:40;31.10;99.90
34877;DHT22;21086;44.780;17.194;2023-07-24T08:51:12;31.20;99.90
34877;DHT22;21086;44.780;17.194;2023-07-24T08:53:40;31.40;99.90
34877;DHT22;21086;44.780;17.194;2023-07-24T08:56:10;31.50;99.90
34877;DHT22;21086;44.780;17.194;2023-07-24T08:58:37;31.60;99.90
34877;DHT22;21086;44.780;17.194;2023-07-24T09:01:07;31.70;99.90
34877;DHT22;21086;44.780;17.194;2023-07-24T09:03:35;31.80;99.90
34877;DHT22;21086;44.780;17.194;2023-07-24T09:06:03;31.90;99.90
34877;DHT22;21086;44.780;17.194;2023-07-24T09:08:40;31.90;99.90
34877;DHT22;21086;44.780;17.194;2023-07-24T09:11:09;32.10;99.90
34877;DHT22;21086;44.780;17.194;2023-07-24T09:13:38;32.20;99.90
34877;DHT22;21086;44.780;17.194;2023-07-24T09:16:05;32.40;99.90
34877;DHT22;21086;44.780;17.194;2023-07-24T09:18:42;32.50;99.90
34877;DHT22;21086;44.780;17.194;2023-07-24T09:21:10;32.70;99.90
34877;DHT22;21086;44.780;17.194;2023-07-24T09:23:39;32.80;99.90
34877;DHT22;21086;44.780;17.194;2023-07-24T09:26:10;32.80;99.90
34877;DHT22;21086;44.780;17.194;2023-07-24T09:28:37;33.00;99.90
34877;DHT22;21086;44.780;17.194;2023-07-24T09:31:04;33.10;99.90
34877;DHT22;21086;44.780;17.194;2023-07-24T09:36:04;33.20;99.90
34877;DHT22;21086;44.780;17.194;2023-07-24T09:38:31;33.30;99.90
34877;DHT22;21086;44.780;17.194;2023-07-24T09:41:00;33.50;99.90
34877;DHT22;21086;44.780;17.194;2023-07-24T09:43:28;33.60;99.90
34877;DHT22;21086;44.780;17.194;2023-07-24T09:46:07;33.70;99.90
34877;DHT22;21086;44.780;17.194;2023-07-24T09:48:35;33.90;99.90
34877;DHT22;21086;44.780;17.194;2023-07-24T09:51:11;34.00;99.90
34877;DHT22;21086;44.780;17.194;2023-07-24T09:53:49;34.10;99.90
34877;DHT22;21086;44.780;17.194;2023-07-24T09:56:18;34.40;99.90
34877;DHT22;21086;44.780;17.194;2023-07-24T09:58:57;34.70;99.90
34877;DHT22;21086;44.780;17.194;2023-07-24T10:01:26;35.10;99.90
34877;DHT22;21086;44.780;17.194;2023-07-24T10:03:55;35.60;99.90
34877;DHT22;21086;44.780;17.194;2023-07-24T10:06:24;36.10;99.90
34877;DHT22;21086;44.780;17.194;2023-07-24T10:08:53;36.40;99.90
34877;DHT22;21086;44.780;17.194;2023-07-24T10:11:21;36.50;99.90
34877;DHT22;21086;44.780;17.194;2023-07-24T10:13:50;36.00;99.90
34877;DHT22;21086;44.780;17.194;2023-07-24T10:16:17;36.40;99.90
34877;DHT22;21086;44.780;17.194;2023-07-24T10:18:45;36.40;99.90
34877;DHT22;21086;44.780;17.194;2023-07-24T10:21:13;36.50;99.90
34877;DHT22;21086;44.780;17.194;2023-07-24T10:23:43;36.40;99.90
34877;DHT22;21086;44.780;17.194;2023-07-24T10:26:11;36.10;99.90
34877;DHT22;21086;44.780;17.194;2023-07-24T10:28:39;35.80;99.90
34877;DHT22;21086;44.780;17.194;2023-07-24T10:31:22;35.60;99.90
34877;DHT22;21086;44.780;17.194;2023-07-24T10:33:50;35.50;99.90
34877;DHT22;21086;44.780;17.194;2023-07-24T10:36:20;35.50;99.90
34877;DHT22;21086;44.780;17.194;2023-07-24T10:38:55;35.70;99.90
34877;DHT22;21086;44.780;17.194;2023-07-24T10:41:34;35.80;99.90
34877;DHT22;21086;44.780;17.194;2023-07-24T10:44:01;36.10;99.90
34877;DHT22;21086;44.780;17.194;2023-07-24T10:46:55;36.60;99.90
34877;DHT22;21086;44.780;17.194;2023-07-24T10:49:22;36.70;99.90
34877;DHT22;21086;44.780;17.194;2023-07-24T10:51:58;36.90;99.90
34877;DHT22;21086;44.780;17.194;2023-07-24T10:54:25;36.50;99.90
34877;DHT22;21086;44.780;17.194;2023-07-24T10:56:59;36.90;99.90
34877;DHT22;21086;44.780;17.194;2023-07-24T10:59:38;37.10;99.90
34877;DHT22;21086;44.780;17.194;2023-07-24T11:02:06;37.30;99.90
34877;DHT22;21086;44.780;17.194;2023-07-24T11:04:33;37.40;99.90
34877;DHT22;21086;44.780;17.194;2023-07-24T11:07:01;37.40;99.90
34877;DHT22;21086;44.780;17.194;2023-07-24T11:09:38;37.00;99.90
34877;DHT22;21086;44.780;17.194;2023-07-24T11:12:16;36.80;99.90
34877;DHT22;21086;44.780;17.194;2023-07-24T11:14:50;36.90;99.90
34877;DHT22;21086;44.780;17.194;2023-07-24T11:17:17;36.70;99.90
34877;DHT22;21086;44.780;17.194;2023-07-24T11:19:44;36.70;99.90
34877;DHT22;21086;44.780;17.194;2023-07-24T11:22:12;36.80;99.90
34877;DHT22;21086;44.780;17.194;2023-07-24T11:24:46;36.70;99.90
34877;DHT22;21086;44.780;17.194;2023-07-24T11:27:14;37.00;99.90
34877;DHT22;21086;44.780;17.194;2023-07-24T11:29:49;37.00;99.90
34877;DHT22;21086;44.780;17.194;2023-07-24T11:32:20;36.90;99.90
34877;DHT22;21086;44.780;17.194;2023-07-24T11:34:51;36.80;99.90
34877;DHT22;21086;44.780;17.194;2023-07-24T11:37:19;36.70;99.90
34877;DHT22;21086;44.780;17.194;2023-07-24T11:40:00;36.70;99.90
34877;DHT22;21086;44.780;17.194;2023-07-24T11:42:31;36.50;99.90
34877;DHT22;21086;44.780;17.194;2023-07-24T11:45:01;36.70;99.90
34877;DHT22;21086;44.780;17.194;2023-07-24T11:47:29;36.90;99.90
34877;DHT22;21086;44.780;17.194;2023-07-24T11:50:00;37.20;99.90
34877;DHT22;21086;44.780;17.194;2023-07-24T11:52:47;37.40;99.90
34877;DHT22;21086;44.780;17.194;2023-07-24T11:55:17;37.80;99.90
34877;DHT22;21086;44.780;17.194;2023-07-24T11:57:58;37.80;99.90
34877;DHT22;21086;44.780;17.194;2023-07-24T12:00:27;38.00;99.90
34877;DHT22;21086;44.780;17.194;2023-07-24T12:03:01;38.20;99.90
34877;DHT22;21086;44.780;17.194;2023-07-24T12:05:41;38.30;99.90
34877;DHT22;21086;44.780;17.194;2023-07-24T12:08:10;38.50;99.90
34877;DHT22;21086;44.780;17.194;2023-07-24T12:10:38;38.40;99.90
34877;DHT22;21086;44.780;17.194;2023-07-24T12:13:06;38.40;99.90
34877;DHT22;21086;44.780;17.194;2023-07-24T12:15:34;38.70;99.90
34877;DHT22;21086;44.780;17.194;2023-07-24T12:18:04;38.70;99.90
34877;DHT22;21086;44.780;17.194;2023-07-24T12:20:32;39.00;99.90
34877;DHT22;21086;44.780;17.194;2023-07-24T12:22:59;39.30;99.90
34877;DHT22;21086;44.780;17.194;2023-07-24T12:25:27;39.30;99.90
34877;DHT22;21086;44.780;17.194;2023-07-24T12:27:54;39.00;99.90
34877;DHT22;21086;44.780;17.194;2023-07-24T12:30:22;38.50;99.90
34877;DHT22;21086;44.780;17.194;2023-07-24T12:32:49;37.90;99.90
34877;DHT22;21086;44.780;17.194;2023-07-24T12:35:16;37.80;99.90
34877;DHT22;21086;44.780;17.194;2023-07-24T12:37:45;38.90;99.90
34877;DHT22;21086;44.780;17.194;2023-07-24T12:40:12;38.00;99.90
34877;DHT22;21086;44.780;17.194;2023-07-24T12:42:40;39.00;99.90
34877;DHT22;21086;44.780;17.194;2023-07-24T12:45:07;40.40;99.90
34877;DHT22;21086;44.780;17.194;2023-07-24T12:47:35;41.10;99.90
34877;DHT22;21086;44.780;17.194;2023-07-24T12:50:02;42.00;99.90
34877;DHT22;21086;44.780;17.194;2023-07-24T12:52:33;43.10;99.90
34877;DHT22;21086;44.780;17.194;2023-07-24T12:55:00;44.30;99.90
34877;DHT22;21086;44.780;17.194;2023-07-24T12:57:29;44.90;99.90
34877;DHT22;21086;44.780;17.194;2023-07-24T12:59:57;45.40;99.90
34877;DHT22;21086;44.780;17.194;2023-07-24T13:02:24;46.00;99.90
34877;DHT22;21086;44.780;17.194;2023-07-24T13:04:52;46.90;99.90
34877;DHT22;21086;44.780;17.194;2023-07-24T13:07:20;47.70;99.90
34877;DHT22;21086;44.780;17.194;2023-07-24T13:09:47;48.70;99.90
34877;DHT22;21086;44.780;17.194;2023-07-24T13:12:14;49.40;99.90
34877;DHT22;21086;44.780;17.194;2023-07-24T13:14:41;48.90;99.90
34877;DHT22;21086;44.780;17.194;2023-07-24T13:17:11;49.50;99.90
34877;DHT22;21086;44.780;17.194;2023-07-24T13:19:38;50.00;99.90
34877;DHT22;21086;44.780;17.194;2023-07-24T13:22:05;50.10;99.90
34877;DHT22;21086;44.780;17.194;2023-07-24T13:24:32;50.50;99.90
34877;DHT22;21086;44.780;17.194;2023-07-24T13:27:00;50.80;99.90
34877;DHT22;21086;44.780;17.194;2023-07-24T13:29:29;51.80;99.90
34877;DHT22;21086;44.780;17.194;2023-07-24T13:31:56;51.80;99.90
34877;DHT22;21086;44.780;17.194;2023-07-24T13:34:24;51.90;99.90
34877;DHT22;21086;44.780;17.194;2023-07-24T13:36:51;51.70;99.90
34877;DHT22;21086;44.780;17.194;2023-07-24T13:39:19;51.80;99.90
34877;DHT22;21086;44.780;17.194;2023-07-24T13:41:46;51.90;99.90
34877;DHT22;21086;44.780;17.194;2023-07-24T13:44:13;52.80;99.90
34877;DHT22;21086;44.780;17.194;2023-07-24T13:46:40;53.90;99.90
34877;DHT22;21086;44.780;17.194;2023-07-24T13:49:08;54.50;99.90
34877;DHT22;21086;44.780;17.194;2023-07-24T13:51:35;54.30;99.90
34877;DHT22;21086;44.780;17.194;2023-07-24T13:54:02;53.20;99.90
34877;DHT22;21086;44.780;17.194;2023-07-24T13:56:29;53.30;99.90
34877;DHT22;21086;44.780;17.194;2023-07-24T13:59:01;54.10;99.90
34877;DHT22;21086;44.780;17.194;2023-07-24T14:01:28;55.60;99.90
34877;DHT22;21086;44.780;17.194;2023-07-24T14:03:55;54.60;99.90
34877;DHT22;21086;44.780;17.194;2023-07-24T14:06:23;55.50;99.90
34877;DHT22;21086;44.780;17.194;2023-07-24T14:08:50;57.00;99.90
34877;DHT22;21086;44.780;17.194;2023-07-24T14:11:17;57.70;99.90
34877;DHT22;21086;44.780;17.194;2023-07-24T14:13:44;58.40;99.90
34877;DHT22;21086;44.780;17.194;2023-07-24T14:16:12;58.80;99.90
34877;DHT22;21086;44.780;17.194;2023-07-24T14:18:40;59.20;99.90
34877;DHT22;21086;44.780;17.194;2023-07-24T14:21:07;58.50;99.90
34877;DHT22;21086;44.780;17.194;2023-07-24T14:23:34;58.40;99.90
34877;DHT22;21086;44.780;17.194;2023-07-24T14:26:01;59.00;99.90
34877;DHT22;21086;44.780;17.194;2023-07-24T14:28:28;58.70;99.90
34877;DHT22;21086;44.780;17.194;2023-07-24T14:30:56;58.30;99.90
34877;DHT22;21086;44.780;17.194;2023-07-24T14:33:23;57.80;99.90
34877;DHT22;21086;44.780;17.194;2023-07-24T14:35:50;58.70;99.90
34877;DHT22;21086;44.780;17.194;2023-07-24T14:38:17;59.60;99.90
34877;DHT22;21086;44.780;17.194;2023-07-24T14:40:44;58.80;99.90
34877;DHT22;21086;44.780;17.194;2023-07-24T14:43:11;58.60;99.90
34877;DHT22;21086;44.780;17.194;2023-07-24T14:45:38;58.40;99.90
34877;DHT22;21086;44.780;17.194;2023-07-24T14:48:06;58.50;99.90
34877;DHT22;21086;44.780;17.194;2023-07-24T14:50:36;58.50;99.90
34877;DHT22;21086;44.780;17.194;2023-07-24T14:53:03;59.20;99.90
34877;DHT22;21086;44.780;17.194;2023-07-24T14:55:30;59.50;99.90
34877;DHT22;21086;44.780;17.194;2023-07-24T14:57:57;60.10;99.90
34877;DHT22;21086;44.780;17.194;2023-07-24T15:00:24;60.80;99.90
34877;DHT22;21086;44.780;17.194;2023-07-24T15:02:51;59.90;99.90
34877;DHT22;21086;44.780;17.194;2023-07-24T15:05:18;59.80;99.90
34877;DHT22;21086;44.780;17.194;2023-07-24T15:07:45;60.20;99.90
34877;DHT22;21086;44.780;17.194;2023-07-24T15:10:13;59.10;99.90
34877;DHT22;21086;44.780;17.194;2023-07-24T15:12:40;58.60;99.90
34877;DHT22;21086;44.780;17.194;2023-07-24T15:15:08;58.20;99.90
34877;DHT22;21086;44.780;17.194;2023-07-24T15:17:35;58.30;99.90
34877;DHT22;21086;44.780;17.194;2023-07-24T15:20:02;58.20;99.90
34877;DHT22;21086;44.780;17.194;2023-07-24T15:22:29;57.80;99.90
34877;DHT22;21086;44.780;17.194;2023-07-24T15:24:56;57.30;99.90
34877;DHT22;21086;44.780;17.194;2023-07-24T15:27:24;57.00;99.90
34877;DHT22;21086;44.780;17.194;2023-07-24T15:29:51;57.20;99.90
34877;DHT22;21086;44.780;17.194;2023-07-24T15:32:18;57.70;99.90
34877;DHT22;21086;44.780;17.194;2023-07-24T15:34:45;57.30;99.90